메인 페이지
METAR-TAF:

METAR-TAF

공항 :

코펜하겐 카스트럽 국제공항

코펜하겐, 덴마크

위도: 55-37N, 경도: 012-39E, 고도: 5m

현재 날씨관측

예보는 27분 전, 08:20시(UTC)에 발표되었습니다.
동남동16kt
온도 17°C
습도 52%
기압 999 hPa
시정 10km 이상
박무

METAR: EKCH 040820Z AUTO 12016KT 9999 BR NCD 17/07 Q0999 TEMPO 11015G25KT

시각: 10:47 (08:47 UTC)

예보

예보는 3 시간 22분 전, 05:25시(UTC)에 발표되었습니다.
예보 대상 시간: 04일 06시부터 05일 06시까지 (UTC)
12kt
시정 10km 이상
1500m 미만 상공 구름 및 적란운 없음
일시적
04일 07시부터 04일 23시까지 (UTC)
동남동18kt, 순간 최대 풍속 28kt
일시적
04일 23시부터 05일 04시까지 (UTC)
남동18kt, 순간 최대 풍속 28kt
시정: 4000m
고도 800ft 상공 구름 많음
고도 5000ft 상공 구름 많음, 적란운.
소나기, 뇌우, 비
전환 중
05일 04시부터 05일 06시까지 (UTC)
서남서10kt

TAF: EKCH 040525Z 0406/0506 10012KT CAVOK TEMPO 0407/0423 11018G28KT TEMPO 0423/0504 13018G28KT 4000 SHRA TSRA BKN008 BKN050CB BECMG 0504/0506 25010KT

4,000개 이상의 공항 관측 자료 및 예보 (METAR 및 TAF 보고).

지도상에서 검색 가능한 기상관측소가 노란 점과 빨간 점으로 표시되어 있습니다.

기상관측소 명을 보려면 표시 위로 마우스를 이동하세요.

날씨 관측과 예보를 보려면 클릭하세요.

지도 변경 : 확대하려면 엑스 표시가 있는 녹색 버튼, 축소하려면 빼기 표시가 있는 녹색 버튼, 다음 페이지의 지도를 보려면 녹색 화살표를 클릭하세요.


METAR-TAF: